EPKK

John Paul II International Kraków-Balice Airport

Kraków, Poland
METAR EPKK 181100Z VRB02KT CAVOK 19/11 Q1019
Observed Flight Rules
Oct-18 @ 11:00 UTC (36 minutes ago) Visual Flight Rules
Wind Visibility Clouds
Variable at 2 knots 10,000+ meters
  • Clear skies
Temperatures Readings
Current 19°C / 66°F
Dewpoint 11°C / 52°F
Humidity 60%
Altimeter 30.09" Hg
Pressure 1019 hPa
Elevation 237
METAR EPKK 181100Z VRB02KT CAVOK 19/11 Q1019
Observed Flight Rules
Oct-18 @ 11:00 UTC
(36 minutes ago)
VFR
Wind Visibility
Variable at 2 knots 10,000+ meters
Clouds
  • Clear skies
Temperature Dewpoint
19°C / 66°F 11°C / 52°F
Humidity Altimeter Pressure
60% 30.09" Hg 1019 hPa